sensor_id;sensor_type;location;lat;lon;timestamp;pressure;altitude;pressure_sealevel;temperature;humidity
9774;BME280;4926;42.670;23.316;2023-09-18T00:02:19;95034.41;;;18.14;100.00
9774;BME280;4926;42.670;23.316;2023-09-18T00:04:45;95030.78;;;18.10;100.00
9774;BME280;4926;42.670;23.316;2023-09-18T00:07:15;95018.88;;;18.11;100.00
9774;BME280;4926;42.670;23.316;2023-09-18T00:09:42;95005.41;;;18.11;100.00
9774;BME280;4926;42.670;23.316;2023-09-18T00:12:08;95010.28;;;18.26;100.00
9774;BME280;4926;42.670;23.316;2023-09-18T00:14:37;95006.13;;;18.29;100.00
9774;BME280;4926;42.670;23.316;2023-09-18T00:17:04;95006.94;;;18.29;100.00
9774;BME280;4926;42.670;23.316;2023-09-18T00:19:30;95010.72;;;18.28;100.00
9774;BME280;4926;42.670;23.316;2023-09-18T00:21:59;95004.41;;;18.24;100.00
9774;BME280;4926;42.670;23.316;2023-09-18T00:24:26;95013.78;;;18.18;100.00
9774;BME280;4926;42.670;23.316;2023-09-18T00:26:53;95002.81;;;18.23;100.00
9774;BME280;4926;42.670;23.316;2023-09-18T00:29:20;95012.75;;;18.40;100.00
9774;BME280;4926;42.670;23.316;2023-09-18T00:31:52;95017.72;;;18.29;100.00
9774;BME280;4926;42.670;23.316;2023-09-18T00:34:24;95012.31;;;18.29;100.00
9774;BME280;4926;42.670;23.316;2023-09-18T00:36:50;95020.88;;;18.31;100.00
9774;BME280;4926;42.670;23.316;2023-09-18T00:39:17;95021.78;;;18.35;100.00
9774;BME280;4926;42.670;23.316;2023-09-18T00:41:45;95011.94;;;18.39;100.00
9774;BME280;4926;42.670;23.316;2023-09-18T00:44:39;95021.78;;;18.35;100.00
9774;BME280;4926;42.670;23.316;2023-09-18T00:47:14;95021.78;;;18.35;100.00
9774;BME280;4926;42.670;23.316;2023-09-18T00:49:45;95015.63;;;18.35;100.00
9774;BME280;4926;42.670;23.316;2023-09-18T00:52:17;95022.44;;;18.32;100.00
9774;BME280;4926;42.670;23.316;2023-09-18T00:54:46;95022.31;;;18.29;100.00
9774;BME280;4926;42.670;23.316;2023-09-18T00:57:14;95018.66;;;18.33;100.00
9774;BME280;4926;42.670;23.316;2023-09-18T00:59:41;95029.44;;;18.33;100.00
9774;BME280;4926;42.670;23.316;2023-09-18T01:02:08;95031.94;;;18.38;100.00
9774;BME280;4926;42.670;23.316;2023-09-18T01:04:37;95028.94;;;18.40;100.00
9774;BME280;4926;42.670;23.316;2023-09-18T01:07:04;95029.75;;;18.40;100.00
9774;BME280;4926;42.670;23.316;2023-09-18T01:09:34;95038.94;;;18.31;100.00
9774;BME280;4926;42.670;23.316;2023-09-18T01:12:05;95042.63;;;18.26;100.00
9774;BME280;4926;42.670;23.316;2023-09-18T01:14:42;95046.88;;;18.27;100.00
9774;BME280;4926;42.670;23.316;2023-09-18T01:17:12;95042.16;;;18.24;100.00
9774;BME280;4926;42.670;23.316;2023-09-18T01:19:44;95038.66;;;18.24;100.00
9774;BME280;4926;42.670;23.316;2023-09-18T01:22:15;95051.19;;;18.20;100.00
9774;BME280;4926;42.670;23.316;2023-09-18T01:24:45;95041.22;;;18.20;100.00
9774;BME280;4926;42.670;23.316;2023-09-18T01:27:14;95043.72;;;18.25;100.00
9774;BME280;4926;42.670;23.316;2023-09-18T01:29:43;95022.03;;;18.13;100.00
9774;BME280;4926;42.670;23.316;2023-09-18T01:32:09;95047.25;;;18.17;100.00
9774;BME280;4926;42.670;23.316;2023-09-18T01:34:39;95045.16;;;18.14;100.00
9774;BME280;4926;42.670;23.316;2023-09-18T01:37:09;95044.72;;;18.12;100.00
9774;BME280;4926;42.670;23.316;2023-09-18T01:39:38;95048.53;;;18.11;100.00
9774;BME280;4926;42.670;23.316;2023-09-18T01:42:09;95042.84;;;18.04;100.00
9774;BME280;4926;42.670;23.316;2023-09-18T01:44:39;95043.78;;;18.08;100.00
9774;BME280;4926;42.670;23.316;2023-09-18T01:47:11;95042.84;;;18.04;100.00
9774;BME280;4926;42.670;23.316;2023-09-18T01:49:39;95043.78;;;18.08;100.00
9774;BME280;4926;42.670;23.316;2023-09-18T01:52:10;95039.06;;;17.97;100.00
9774;BME280;4926;42.670;23.316;2023-09-18T01:54:37;95038.91;;;18.02;100.00
9774;BME280;4926;42.670;23.316;2023-09-18T01:57:07;95045.22;;;17.97;100.00
9774;BME280;4926;42.670;23.316;2023-09-18T01:59:34;95040.94;;;18.05;100.00
9774;BME280;4926;42.670;23.316;2023-09-18T02:02:01;95030.84;;;17.93;100.00
9774;BME280;4926;42.670;23.316;2023-09-18T02:04:29;95042.84;;;18.04;100.00
9774;BME280;4926;42.670;23.316;2023-09-18T02:06:56;95049.16;;;18.08;100.00
9774;BME280;4926;42.670;23.316;2023-09-18T02:09:23;95042.19;;;18.07;100.00
9774;BME280;4926;42.670;23.316;2023-09-18T02:11:50;95044.88;;;18.07;100.00
9774;BME280;4926;42.670;23.316;2023-09-18T02:14:18;95046.94;;;18.10;100.00
9774;BME280;4926;42.670;23.316;2023-09-18T02:16:44;95047.88;;;18.14;100.00
9774;BME280;4926;42.670;23.316;2023-09-18T02:19:12;95051.69;;;18.13;100.00
9774;BME280;4926;42.670;23.316;2023-09-18T02:21:41;95044.72;;;18.12;100.00
9774;BME280;4926;42.670;23.316;2023-09-18T02:24:07;95047.25;;;18.17;100.00
9774;BME280;4926;42.670;23.316;2023-09-18T02:26:37;95036.47;;;18.17;100.00
9774;BME280;4926;42.670;23.316;2023-09-18T02:29:07;95041.06;;;18.17;100.00
9774;BME280;4926;42.670;23.316;2023-09-18T02:31:37;95043.94;;;18.12;100.00
9774;BME280;4926;42.670;23.316;2023-09-18T02:34:04;95054.22;;;18.10;100.00
9774;BME280;4926;42.670;23.316;2023-09-18T02:36:33;95052.53;;;18.05;100.00
9774;BME280;4926;42.670;23.316;2023-09-18T02:38:59;95051.88;;;18.00;100.00
9774;BME280;4926;42.670;23.316;2023-09-18T02:41:28;95045.09;;;17.85;100.00
9774;BME280;4926;42.670;23.316;2023-09-18T02:43:55;95039.56;;;17.81;100.00
9774;BME280;4926;42.670;23.316;2023-09-18T02:46:21;95039.72;;;17.85;100.00
9774;BME280;4926;42.670;23.316;2023-09-18T02:48:49;95040.19;;;17.87;100.00
9774;BME280;4926;42.670;23.316;2023-09-18T02:51:16;95045.06;;;17.94;100.00
9774;BME280;4926;42.670;23.316;2023-09-18T02:53:48;95039.69;;;17.94;100.00
9774;BME280;4926;42.670;23.316;2023-09-18T02:56:14;95053.31;;;17.97;100.00
9774;BME280;4926;42.670;23.316;2023-09-18T02:58:43;95055.09;;;17.93;100.00
9774;BME280;4926;42.670;23.316;2023-09-18T03:01:13;95043.34;;;17.98;100.00
9774;BME280;4926;42.670;23.316;2023-09-18T03:03:39;95053.47;;;17.92;100.00
9774;BME280;4926;42.670;23.316;2023-09-18T03:06:08;95057.13;;;17.96;100.00
9774;BME280;4926;42.670;23.316;2023-09-18T03:08:35;95046.34;;;17.96;100.00
9774;BME280;4926;42.670;23.316;2023-09-18T03:11:02;95053.16;;;17.94;100.00
9774;BME280;4926;42.670;23.316;2023-09-18T03:13:31;95048.91;;;17.93;100.00
9774;BME280;4926;42.670;23.316;2023-09-18T03:16:00;95051.59;;;17.93;100.00
9774;BME280;4926;42.670;23.316;2023-09-18T03:18:26;95045.88;;;17.94;100.00
9774;BME280;4926;42.670;23.316;2023-09-18T03:20:56;95055.69;;;17.99;100.00
9774;BME280;4926;42.670;23.316;2023-09-18T03:23:24;95053.66;;;17.87;100.00
9774;BME280;4926;42.670;23.316;2023-09-18T03:25:51;95052.25;;;17.90;100.00
9774;BME280;4926;42.670;23.316;2023-09-18T03:28:18;95041.94;;;17.83;100.00
9774;BME280;4926;42.670;23.316;2023-09-18T03:30:44;95043.53;;;17.84;100.00
9774;BME280;4926;42.670;23.316;2023-09-18T03:33:11;95036.69;;;17.87;100.00
9774;BME280;4926;42.670;23.316;2023-09-18T03:35:48;95036.53;;;17.83;100.00
9774;BME280;4926;42.670;23.316;2023-09-18T03:38:18;95039.72;;;17.85;100.00
9774;BME280;4926;42.670;23.316;2023-09-18T03:40:49;95038.75;;;17.81;100.00
9774;BME280;4926;42.670;23.316;2023-09-18T03:43:18;95033.38;;;17.81;100.00
9774;BME280;4926;42.670;23.316;2023-09-18T03:45:44;95031.66;;;17.68;100.00
9774;BME280;4926;42.670;23.316;2023-09-18T03:48:11;95030.53;;;17.77;100.00
9774;BME280;4926;42.670;23.316;2023-09-18T03:50:38;95026.25;;;17.76;100.00
9774;BME280;4926;42.670;23.316;2023-09-18T03:53:05;95019.78;;;17.69;100.00
9774;BME280;4926;42.670;23.316;2023-09-18T03:55:32;95028.66;;;17.61;100.00
9774;BME280;4926;42.670;23.316;2023-09-18T03:58:00;95026.16;;;17.56;100.00
9774;BME280;4926;42.670;23.316;2023-09-18T04:00:29;95019.81;;;17.52;100.00
9774;BME280;4926;42.670;23.316;2023-09-18T04:02:56;95030.91;;;17.50;100.00
9774;BME280;4926;42.670;23.316;2023-09-18T04:05:23;95025.66;;;17.45;100.00
9774;BME280;4926;42.670;23.316;2023-09-18T04:07:49;95016.63;;;17.50;100.00
9774;BME280;4926;42.670;23.316;2023-09-18T04:10:17;95025.50;;;17.59;100.00
9774;BME280;4926;42.670;23.316;2023-09-18T04:12:51;95025.19;;;17.60;100.00
9774;BME280;4926;42.670;23.316;2023-09-18T04:15:19;95021.06;;;17.63;100.00
9774;BME280;4926;42.670;23.316;2023-09-18T04:17:47;95029.75;;;17.60;100.00
9774;BME280;4926;42.670;23.316;2023-09-18T04:20:14;95036.13;;;17.55;100.00
9774;BME280;4926;42.670;23.316;2023-09-18T04:22:43;95038.81;;;17.47;100.00
9774;BME280;4926;42.670;23.316;2023-09-18T04:25:10;95043.38;;;17.55;100.00
9774;BME280;4926;42.670;23.316;2023-09-18T04:27:41;95051.47;;;17.55;100.00
9774;BME280;4926;42.670;23.316;2023-09-18T04:30:11;95046.25;;;17.58;100.00
9774;BME280;4926;42.670;23.316;2023-09-18T04:32:40;95047.03;;;17.67;100.00
9774;BME280;4926;42.670;23.316;2023-09-18T04:35:09;95044.03;;;17.60;100.00
9774;BME280;4926;42.670;23.316;2023-09-18T04:37:38;95047.19;;;17.71;100.00
9774;BME280;4926;42.670;23.316;2023-09-18T04:40:23;95052.41;;;17.59;100.00
9774;BME280;4926;42.670;23.316;2023-09-18T04:42:51;95057.16;;;17.62;100.00
9774;BME280;4926;42.670;23.316;2023-09-18T04:45:18;95059.22;;;17.56;100.00
9774;BME280;4926;42.670;23.316;2023-09-18T04:47:46;95057.81;;;17.59;100.00
9774;BME280;4926;42.670;23.316;2023-09-18T04:50:18;95054.16;;;17.63;100.00
9774;BME280;4926;42.670;23.316;2023-09-18T04:52:45;95052.41;;;17.59;100.00
9774;BME280;4926;42.670;23.316;2023-09-18T04:55:15;95053.84;;;17.56;100.00
9774;BME280;4926;42.670;23.316;2023-09-18T04:57:41;95056.38;;;17.53;100.00
9774;BME280;4926;42.670;23.316;2023-09-18T05:00:16;95058.13;;;17.66;100.00
9774;BME280;4926;42.670;23.316;2023-09-18T05:02:54;95048.31;;;17.70;100.00
9774;BME280;4926;42.670;23.316;2023-09-18T05:05:21;95039.75;;;17.68;100.00
9774;BME280;4926;42.670;23.316;2023-09-18T05:07:51;95041.97;;;17.66;100.00
9774;BME280;4926;42.670;23.316;2023-09-18T05:10:23;95053.38;;;17.63;100.00
9774;BME280;4926;42.670;23.316;2023-09-18T05:12:51;95041.31;;;17.69;100.00
9774;BME280;4926;42.670;23.316;2023-09-18T05:15:23;95051.13;;;17.82;100.00
9774;BME280;4926;42.670;23.316;2023-09-18T05:17:51;95060.44;;;18.02;100.00
9774;BME280;4926;42.670;23.316;2023-09-18T05:20:26;95061.81;;;18.16;100.00
9774;BME280;4926;42.670;23.316;2023-09-18T05:22:59;95060.38;;;18.27;100.00
9774;BME280;4926;42.670;23.316;2023-09-18T05:25:28;95066.38;;;18.33;100.00
9774;BME280;4926;42.670;23.316;2023-09-18T05:27:57;95068.75;;;18.34;100.00
9774;BME280;4926;42.670;23.316;2023-09-18T05:30:26;95067.31;;;18.37;100.00
9774;BME280;4926;42.670;23.316;2023-09-18T05:32:54;95067.75;;;18.39;100.00
9774;BME280;4926;42.670;23.316;2023-09-18T05:35:23;95058.53;;;18.57;100.00
9774;BME280;4926;42.670;23.316;2023-09-18T05:37:50;95069.28;;;18.65;100.00
9774;BME280;4926;42.670;23.316;2023-09-18T05:40:17;95059.72;;;18.76;100.00
9774;BME280;4926;42.670;23.316;2023-09-18T05:42:46;95068.00;;;18.71;100.00
9774;BME280;4926;42.670;23.316;2023-09-18T05:45:14;95066.97;;;18.84;100.00
9774;BME280;4926;42.670;23.316;2023-09-18T05:47:41;95070.72;;;18.92;100.00
9774;BME280;4926;42.670;23.316;2023-09-18T05:50:10;95076.53;;;19.03;100.00
9774;BME280;4926;42.670;23.316;2023-09-18T05:52:42;95069.69;;;19.05;100.00
9774;BME280;4926;42.670;23.316;2023-09-18T05:55:09;95083.59;;;19.16;100.00
9774;BME280;4926;42.670;23.316;2023-09-18T05:57:37;95078.38;;;19.11;100.00
9774;BME280;4926;42.670;23.316;2023-09-18T06:00:04;95077.84;;;19.26;100.00
9774;BME280;4926;42.670;23.316;2023-09-18T06:02:31;95084.66;;;19.23;100.00
9774;BME280;4926;42.670;23.316;2023-09-18T06:04:59;95073.84;;;19.03;100.00
9774;BME280;4926;42.670;23.316;2023-09-18T06:07:26;95082.09;;;19.06;100.00
9774;BME280;4926;42.670;23.316;2023-09-18T06:09:55;95073.00;;;19.11;100.00
9774;BME280;4926;42.670;23.316;2023-09-18T06:12:22;95084.44;;;19.37;100.00
9774;BME280;4926;42.670;23.316;2023-09-18T06:14:49;95074.69;;;19.44;100.00
9774;BME280;4926;42.670;23.316;2023-09-18T06:17:16;95078.94;;;19.54;100.00
9774;BME280;4926;42.670;23.316;2023-09-18T06:19:43;95081.19;;;19.84;100.00
9774;BME280;4926;42.670;23.316;2023-09-18T06:22:12;95080.75;;;20.15;100.00
9774;BME280;4926;42.670;23.316;2023-09-18T06:24:39;95077.13;;;20.11;100.00
9774;BME280;4926;42.670;23.316;2023-09-18T06:27:08;95085.06;;;20.16;100.00
9774;BME280;4926;42.670;23.316;2023-09-18T06:29:36;95091.06;;;20.34;100.00
9774;BME280;4926;42.670;23.316;2023-09-18T06:32:05;95076.59;;;20.50;100.00
9774;BME280;4926;42.670;23.316;2023-09-18T06:34:37;95073.91;;;20.74;100.00
9774;BME280;4926;42.670;23.316;2023-09-18T06:37:12;95083.81;;;20.94;100.00
9774;BME280;4926;42.670;23.316;2023-09-18T06:39:41;95083.34;;;20.80;99.19
9774;BME280;4926;42.670;23.316;2023-09-18T06:42:09;95070.97;;;20.79;98.50
9774;BME280;4926;42.670;23.316;2023-09-18T06:44:39;95076.25;;;20.52;99.93
9774;BME280;4926;42.670;23.316;2023-09-18T06:47:06;95086.94;;;20.48;100.00
9774;BME280;4926;42.670;23.316;2023-09-18T06:49:33;95087.84;;;20.52;100.00
9774;BME280;4926;42.670;23.316;2023-09-18T06:51:59;95078.38;;;20.58;100.00
9774;BME280;4926;42.670;23.316;2023-09-18T06:54:26;95078.28;;;20.67;100.00
9774;BME280;4926;42.670;23.316;2023-09-18T06:56:53;95079.53;;;20.93;100.00
9774;BME280;4926;42.670;23.316;2023-09-18T06:59:22;95079.66;;;21.09;97.86
9774;BME280;4926;42.670;23.316;2023-09-18T07:01:48;95081.56;;;21.21;95.07
9774;BME280;4926;42.670;23.316;2023-09-18T07:04:15;95075.47;;;21.36;94.08
9774;BME280;4926;42.670;23.316;2023-09-18T07:06:42;95080.38;;;21.58;93.98
9774;BME280;4926;42.670;23.316;2023-09-18T07:09:09;95075.91;;;21.89;90.88
9774;BME280;4926;42.670;23.316;2023-09-18T07:11:37;95074.75;;;22.18;87.84
9774;BME280;4926;42.670;23.316;2023-09-18T07:14:04;95078.25;;;22.34;86.13
9774;BME280;4926;42.670;23.316;2023-09-18T07:16:33;95078.53;;;22.45;86.02
9774;BME280;4926;42.670;23.316;2023-09-18T07:19:02;95069.13;;;22.85;82.71
9774;BME280;4926;42.670;23.316;2023-09-18T07:21:30;95069.81;;;23.13;80.63
9774;BME280;4926;42.670;23.316;2023-09-18T07:24:00;95071.91;;;23.04;79.42
9774;BME280;4926;42.670;23.316;2023-09-18T07:26:27;95087.31;;;22.10;83.48
9774;BME280;4926;42.670;23.316;2023-09-18T07:28:54;95089.56;;;22.36;84.35
9774;BME280;4926;42.670;23.316;2023-09-18T07:31:20;95082.09;;;22.76;82.14
9774;BME280;4926;42.670;23.316;2023-09-18T07:33:49;95065.63;;;23.00;80.20
9774;BME280;4926;42.670;23.316;2023-09-18T07:36:16;95076.03;;;23.30;79.35
9774;BME280;4926;42.670;23.316;2023-09-18T07:38:43;95072.41;;;23.25;78.63
9774;BME280;4926;42.670;23.316;2023-09-18T07:41:13;95073.84;;;23.19;78.82
9774;BME280;4926;42.670;23.316;2023-09-18T07:43:41;95063.25;;;23.30;78.48
9774;BME280;4926;42.670;23.316;2023-09-18T07:46:07;95067.28;;;23.74;75.19
9774;BME280;4926;42.670;23.316;2023-09-18T07:48:36;95065.94;;;23.84;74.44
9774;BME280;4926;42.670;23.316;2023-09-18T07:51:06;95073.09;;;23.92;73.32
9774;BME280;4926;42.670;23.316;2023-09-18T07:53:40;95065.72;;;23.92;72.74
9774;BME280;4926;42.670;23.316;2023-09-18T07:56:06;95070.97;;;24.01;73.01
9774;BME280;4926;42.670;23.316;2023-09-18T07:58:33;95063.69;;;24.05;73.37
9774;BME280;4926;42.670;23.316;2023-09-18T08:01:04;95064.25;;;23.95;73.08
9774;BME280;4926;42.670;23.316;2023-09-18T08:03:31;95065.44;;;23.97;73.20
9774;BME280;4926;42.670;23.316;2023-09-18T08:06:00;95059.56;;;24.14;72.05
9774;BME280;4926;42.670;23.316;2023-09-18T08:08:31;95061.94;;;24.35;71.53
9774;BME280;4926;42.670;23.316;2023-09-18T08:11:00;95054.28;;;24.21;70.55
9774;BME280;4926;42.670;23.316;2023-09-18T08:13:39;95053.28;;;24.52;69.90
9774;BME280;4926;42.670;23.316;2023-09-18T08:16:06;95047.72;;;24.90;68.73
9774;BME280;4926;42.670;23.316;2023-09-18T08:18:38;95039.56;;;24.90;67.64
9774;BME280;4926;42.670;23.316;2023-09-18T08:21:06;95046.56;;;24.91;67.09
9774;BME280;4926;42.670;23.316;2023-09-18T08:23:35;95048.09;;;24.66;66.82
9774;BME280;4926;42.670;23.316;2023-09-18T08:26:03;95035.81;;;24.76;66.70
9774;BME280;4926;42.670;23.316;2023-09-18T08:28:32;95030.91;;;25.11;65.81
9774;BME280;4926;42.670;23.316;2023-09-18T08:31:01;95022.13;;;25.47;63.49
9774;BME280;4926;42.670;23.316;2023-09-18T08:33:31;95023.09;;;25.62;62.85
9774;BME280;4926;42.670;23.316;2023-09-18T08:35:57;95018.59;;;25.76;62.41
9774;BME280;4926;42.670;23.316;2023-09-18T08:38:24;95017.09;;;25.82;62.46
9774;BME280;4926;42.670;23.316;2023-09-18T08:40:53;95014.31;;;26.05;61.48
9774;BME280;4926;42.670;23.316;2023-09-18T08:43:21;95001.25;;;26.28;59.99
9774;BME280;4926;42.670;23.316;2023-09-18T08:45:51;94997.41;;;26.29;59.29
9774;BME280;4926;42.670;23.316;2023-09-18T08:48:19;94991.72;;;26.48;58.66
9774;BME280;4926;42.670;23.316;2023-09-18T08:50:52;94993.94;;;26.35;58.26
9774;BME280;4926;42.670;23.316;2023-09-18T08:53:19;95002.53;;;26.01;59.35
9774;BME280;4926;42.670;23.316;2023-09-18T08:55:47;94982.56;;;26.30;58.59
9774;BME280;4926;42.670;23.316;2023-09-18T08:58:15;94989.13;;;26.66;58.63
9774;BME280;4926;42.670;23.316;2023-09-18T09:00:44;94979.78;;;26.67;57.02
9774;BME280;4926;42.670;23.316;2023-09-18T09:03:15;94970.34;;;27.04;56.80
9774;BME280;4926;42.670;23.316;2023-09-18T09:05:45;94958.53;;;27.62;54.49
9774;BME280;4926;42.670;23.316;2023-09-18T09:08:11;94969.53;;;27.69;54.85
9774;BME280;4926;42.670;23.316;2023-09-18T09:10:38;94962.19;;;27.90;53.55
9774;BME280;4926;42.670;23.316;2023-09-18T09:13:08;94962.63;;;28.10;52.11
9774;BME280;4926;42.670;23.316;2023-09-18T09:15:45;94952.88;;;28.26;51.55
9774;BME280;4926;42.670;23.316;2023-09-18T09:18:13;94955.59;;;28.09;51.82
9774;BME280;4926;42.670;23.316;2023-09-18T09:20:40;94945.28;;;27.71;51.06
9774;BME280;4926;42.670;23.316;2023-09-18T09:23:09;94942.84;;;27.44;51.42
9774;BME280;4926;42.670;23.316;2023-09-18T09:25:38;94941.38;;;27.72;51.34
9774;BME280;4926;42.670;23.316;2023-09-18T09:28:07;94950.13;;;28.09;50.79
9774;BME280;4926;42.670;23.316;2023-09-18T09:30:35;94937.63;;;28.08;50.94
9774;BME280;4926;42.670;23.316;2023-09-18T09:33:05;94946.50;;;27.87;50.44
9774;BME280;4926;42.670;23.316;2023-09-18T09:35:33;94943.28;;;27.54;50.66
9774;BME280;4926;42.670;23.316;2023-09-18T09:38:02;94949.06;;;27.41;51.32
9774;BME280;4926;42.670;23.316;2023-09-18T09:40:36;94952.03;;;27.15;52.08
9774;BME280;4926;42.670;23.316;2023-09-18T09:43:08;94948.06;;;27.06;51.52
9774;BME280;4926;42.670;23.316;2023-09-18T09:45:35;94939.69;;;26.78;51.38
9774;BME280;4926;42.670;23.316;2023-09-18T09:48:06;94943.38;;;26.99;51.78
9774;BME280;4926;42.670;23.316;2023-09-18T09:50:34;94936.13;;;27.31;51.39
9774;BME280;4926;42.670;23.316;2023-09-18T09:53:11;94931.72;;;27.92;50.28
9774;BME280;4926;42.670;23.316;2023-09-18T09:55:38;94923.56;;;28.27;49.19
9774;BME280;4926;42.670;23.316;2023-09-18T09:58:07;94929.75;;;28.03;50.55
9774;BME280;4926;42.670;23.316;2023-09-18T10:00:39;94910.25;;;28.15;49.03
9774;BME280;4926;42.670;23.316;2023-09-18T10:03:14;94904.03;;;28.60;47.48
9774;BME280;4926;42.670;23.316;2023-09-18T10:05:42;94883.56;;;29.03;47.29
9774;BME280;4926;42.670;23.316;2023-09-18T10:08:11;94886.66;;;29.33;45.90
9774;BME280;4926;42.670;23.316;2023-09-18T10:10:40;94891.41;;;29.15;46.56
9774;BME280;4926;42.670;23.316;2023-09-18T10:13:12;94889.91;;;28.79;46.71
9774;BME280;4926;42.670;23.316;2023-09-18T10:15:39;94901.22;;;28.11;47.37
9774;BME280;4926;42.670;23.316;2023-09-18T10:18:17;94907.16;;;27.23;48.87
9774;BME280;4926;42.670;23.316;2023-09-18T10:20:45;94910.53;;;27.75;49.29
9774;BME280;4926;42.670;23.316;2023-09-18T10:23:23;94896.94;;;28.45;48.33
9774;BME280;4926;42.670;23.316;2023-09-18T10:25:55;94882.81;;;28.92;46.70
9774;BME280;4926;42.670;23.316;2023-09-18T10:28:24;94875.81;;;28.28;46.75
9774;BME280;4926;42.670;23.316;2023-09-18T10:30:56;94869.53;;;28.24;46.71
9774;BME280;4926;42.670;23.316;2023-09-18T10:33:28;94875.81;;;28.49;46.92
9774;BME280;4926;42.670;23.316;2023-09-18T10:35:55;94865.63;;;28.49;47.08
9774;BME280;4926;42.670;23.316;2023-09-18T10:38:27;94860.91;;;28.78;46.04
9774;BME280;4926;42.670;23.316;2023-09-18T10:40:56;94857.03;;;27.95;47.61
9774;BME280;4926;42.670;23.316;2023-09-18T10:43:24;94870.31;;;28.03;47.43
9774;BME280;4926;42.670;23.316;2023-09-18T10:45:51;94862.09;;;27.93;47.13
9774;BME280;4926;42.670;23.316;2023-09-18T10:48:19;94873.13;;;27.10;48.43
9774;BME280;4926;42.670;23.316;2023-09-18T10:50:50;94863.50;;;27.37;47.83
9774;BME280;4926;42.670;23.316;2023-09-18T10:53:18;94859.25;;;27.61;47.78
9774;BME280;4926;42.670;23.316;2023-09-18T10:55:48;94835.53;;;28.25;47.02
9774;BME280;4926;42.670;23.316;2023-09-18T10:58:23;94836.63;;;28.87;45.42
9774;BME280;4926;42.670;23.316;2023-09-18T11:00:51;94825.09;;;29.38;44.57
9774;BME280;4926;42.670;23.316;2023-09-18T11:03:18;94818.94;;;29.89;43.75
9774;BME280;4926;42.670;23.316;2023-09-18T11:05:45;94814.78;;;29.59;43.71
9774;BME280;4926;42.670;23.316;2023-09-18T11:08:27;94808.75;;;29.89;43.62
9774;BME280;4926;42.670;23.316;2023-09-18T11:10:59;94805.47;;;30.05;42.61
9774;BME280;4926;42.670;23.316;2023-09-18T11:13:31;94802.69;;;29.46;43.60
9774;BME280;4926;42.670;23.316;2023-09-18T11:16:02;94804.91;;;29.73;43.48
9774;BME280;4926;42.670;23.316;2023-09-18T11:18:32;94796.31;;;30.66;41.63
9774;BME280;4926;42.670;23.316;2023-09-18T11:21:09;94789.91;;;30.76;41.27
9774;BME280;4926;42.670;23.316;2023-09-18T11:24:00;94784.69;;;30.48;41.97
9774;BME280;4926;42.670;23.316;2023-09-18T11:26:29;94783.31;;;30.29;42.35
9774;BME280;4926;42.670;23.316;2023-09-18T11:28:59;94775.75;;;30.44;41.86
9774;BME280;4926;42.670;23.316;2023-09-18T11:31:43;94778.13;;;29.91;41.52
9774;BME280;4926;42.670;23.316;2023-09-18T11:34:20;94780.56;;;29.78;42.10
9774;BME280;4926;42.670;23.316;2023-09-18T11:36:48;94781.50;;;29.54;42.47
9774;BME280;4926;42.670;23.316;2023-09-18T11:39:34;94782.19;;;29.76;42.45
9774;BME280;4926;42.670;23.316;2023-09-18T11:42:09;94767.25;;;29.77;42.06
9774;BME280;4926;42.670;23.316;2023-09-18T11:44:43;94775.88;;;29.79;42.16
9774;BME280;4926;42.670;23.316;2023-09-18T11:47:16;94783.41;;;28.78;43.39
9774;BME280;4926;42.670;23.316;2023-09-18T11:49:49;94794.84;;;27.92;44.85
9774;BME280;4926;42.670;23.316;2023-09-18T11:52:20;94799.03;;;27.36;45.44
9774;BME280;4926;42.670;23.316;2023-09-18T11:54:48;94811.03;;;27.11;46.52
9774;BME280;4926;42.670;23.316;2023-09-18T11:57:17;94791.91;;;27.14;46.54
9774;BME280;4926;42.670;23.316;2023-09-18T11:59:44;94793.94;;;27.31;46.35
9774;BME280;4926;42.670;23.316;2023-09-18T12:02:11;94788.50;;;27.42;46.44
9774;BME280;4926;42.670;23.316;2023-09-18T12:04:46;94781.94;;;28.03;44.97
9774;BME280;4926;42.670;23.316;2023-09-18T12:07:13;94776.41;;;28.59;43.87
9774;BME280;4926;42.670;23.316;2023-09-18T12:09:40;94766.88;;;29.02;43.54
9774;BME280;4926;42.670;23.316;2023-09-18T12:12:08;94750.94;;;29.48;42.73
9774;BME280;4926;42.670;23.316;2023-09-18T12:14:36;94762.59;;;29.70;42.37
9774;BME280;4926;42.670;23.316;2023-09-18T12:17:14;94746.47;;;30.20;41.70
9774;BME280;4926;42.670;23.316;2023-09-18T12:19:53;94751.84;;;30.37;40.88
9774;BME280;4926;42.670;23.316;2023-09-18T12:22:24;94751.97;;;30.20;41.56
9774;BME280;4926;42.670;23.316;2023-09-18T12:24:53;94755.72;;;30.43;41.88
9774;BME280;4926;42.670;23.316;2023-09-18T12:27:22;94745.41;;;30.88;41.26
9774;BME280;4926;42.670;23.316;2023-09-18T12:29:52;94748.28;;;30.74;42.22
9774;BME280;4926;42.670;23.316;2023-09-18T12:32:22;94739.59;;;30.83;41.18
9774;BME280;4926;42.670;23.316;2023-09-18T12:34:51;94755.91;;;29.75;42.84
9774;BME280;4926;42.670;23.316;2023-09-18T12:37:20;94749.38;;;29.51;43.46
9774;BME280;4926;42.670;23.316;2023-09-18T12:39:46;94752.41;;;29.67;43.54
9774;BME280;4926;42.670;23.316;2023-09-18T12:42:17;94748.41;;;29.79;42.90
9774;BME280;4926;42.670;23.316;2023-09-18T12:44:54;94745.66;;;29.82;42.76
9774;BME280;4926;42.670;23.316;2023-09-18T12:47:21;94750.06;;;29.62;43.28
9774;BME280;4926;42.670;23.316;2023-09-18T12:49:51;94752.47;;;29.56;43.24
9774;BME280;4926;42.670;23.316;2023-09-18T12:52:21;94753.47;;;29.22;43.87
9774;BME280;4926;42.670;23.316;2023-09-18T12:54:50;94761.59;;;28.21;45.73
9774;BME280;4926;42.670;23.316;2023-09-18T12:57:19;94769.78;;;27.69;46.59
9774;BME280;4926;42.670;23.316;2023-09-18T12:59:46;94771.78;;;27.96;46.08
9774;BME280;4926;42.670;23.316;2023-09-18T13:02:18;94760.78;;;27.58;46.78
9774;BME280;4926;42.670;23.316;2023-09-18T13:04:51;94763.88;;;27.35;47.57
9774;BME280;4926;42.670;23.316;2023-09-18T13:07:18;94764.34;;;27.93;47.16
9774;BME280;4926;42.670;23.316;2023-09-18T13:09:58;94760.00;;;28.31;45.71
9774;BME280;4926;42.670;23.316;2023-09-18T13:12:25;94753.72;;;28.62;45.35
9774;BME280;4926;42.670;23.316;2023-09-18T13:15:06;94745.56;;;29.34;44.31
9774;BME280;4926;42.670;23.316;2023-09-18T13:17:41;94727.22;;;29.83;43.29